Aérodrome :
LOGIN :

S'inscrire | Disclaimer

   EN    FR    IT 

 










Légende :    VFR   VFR Marginal   IFR   IFR Intensif   IFR Très Intensif
Visi : 
Plafond : 
>= 8 km
>= 3000ft
5 à 8 km
1000 à 3000 ft
1500m à 5 km
500 à 1000 ft
800 à 1500m
200 à 500 ft
< 800m
< 200 ft
Symboles :   Orages  Brouillard  Fortes neiges  Fortes précipitations  Vent > 20 kt
SIGMETs :   Divers  Orages  Givrage  Turbulence  Onde Orograph.  Cendres Volcan.







- Altitude de l'aérodrome : 461 ft
- Code IATA : WIE


ETOU - Wiesbaden Army

DERNIER METAR :
  • 191350Z AUTO 27010KT 9999 FEW024 SCT030 06/03 A3006 RMK AO2 RAB19E39DZB39E40 SLP187

METARs EXPIRÉS :
  • 191340Z AUTO 27009KT 9999 BKN026 BKN031 06/03 A3006 RMK AO2 RAB19E39DZB39E40 CIG 025V031 SLP187
  • 191329Z AUTO 29011G20KT 9999 RA BKN025 OVC033 06/03 A3006 RMK AO2 RAB19 SLP187
  • 191306Z AUTO 26012KT 9999 BKN029 OVC035 08/03 A3004 RMK AO2 SLP179
  • 191256Z AUTO 26013KT 9999 OVC028 08/03 A3005 RMK AO2 SLP182 T00750030
  • 191156Z AUTO 28010KT 9999 OVC026 07/03 A3005 RMK AO2 RAE09 CIG 025 RWY07 SLP182 P0000 60000 70003 T00680029 10073 20039 50007
  • 191109Z AUTO 29010KT 9999 OVC024 06/03 A3005 RMK AO2 RAE09 SLP183
  • 191056Z AUTO 29009KT 9999 -RA OVC024 06/02 A3006 RMK AO2 RAE0957DZB0957E0959RAB06E19RAB51 SLP187 P0000 T00630024

TAF TAF ETOU
Valide du 19 à 11h jusqu'au 20 à 17h UTC


191110Z 1911/2017 27012KT 9999 OVC020 620206 QNH3007INS
TEMPO 1911/1912 9000 -RA
BECMG 2003/2004 25009KT 9999 FEW015 SCT030 QNH3008INS
BECMG 2012/2013 23012KT 8000 -RA BKN010 620309 621203 QNH2999INS TX08/1914Z TNM01/2004Z
Pas de NOTAMs connus pour ce terrain.



MET'MAP, la Météo Aéronautique d'un coup d'oeil ! - Copyright ORBIFLY Décembre 2007 - Disclaimer

ORBIFLY MET'MAP TEAM :

Programmation & Développement : Alexandra Zaïnal
Conception & Développement : Baudouin d'Aumeries
Co-Programmation & Développement : Marc-Olivier Méhu
Soutien technique & logistique : Manuel Goepfert

Contact : metmap@orbifly.com




SOURCES & CREDITS :

   NOAA